createdAt,value
2018-07-09T00:01:35.091Z,83.50
2018-07-09T00:04:05.031Z,83.00
2018-07-09T00:06:34.945Z,82.50
2018-07-09T00:09:04.938Z,82.30
2018-07-09T00:11:34.874Z,82.40
2018-07-09T00:14:04.796Z,82.00
2018-07-09T00:16:34.747Z,83.00
2018-07-09T00:19:04.686Z,81.50
2018-07-09T00:21:34.628Z,81.60
2018-07-09T00:24:04.558Z,82.30
2018-07-09T00:26:34.482Z,81.40
2018-07-09T00:29:04.421Z,81.30
2018-07-09T00:31:34.330Z,82.00
2018-07-09T00:34:04.404Z,82.10
2018-07-09T00:36:34.360Z,81.60
2018-07-09T00:39:05.009Z,82.30
2018-07-09T00:41:36.207Z,82.00
2018-07-09T00:44:06.188Z,83.10
2018-07-09T00:46:36.140Z,82.50
2018-07-09T00:49:06.227Z,82.20
2018-07-09T00:51:36.189Z,82.70
2018-07-09T00:54:06.188Z,82.80
2018-07-09T00:56:36.151Z,83.10
2018-07-09T00:59:06.131Z,83.20
2018-07-09T01:01:36.132Z,82.70
2018-07-09T01:04:06.116Z,83.30
2018-07-09T01:06:36.176Z,83.30
2018-07-09T01:09:06.712Z,83.50
2018-07-09T01:11:44.732Z,83.90
2018-07-09T01:14:14.711Z,83.80
2018-07-09T01:16:44.668Z,83.90
2018-07-09T01:19:14.668Z,84.20
2018-07-09T01:21:44.636Z,84.20
2018-07-09T01:24:14.612Z,84.40
2018-07-09T01:26:44.617Z,84.10
2018-07-09T01:29:14.659Z,84.10
2018-07-09T01:31:44.611Z,83.50
2018-07-09T01:34:14.580Z,84.40
2018-07-09T01:36:44.555Z,84.40
2018-07-09T01:39:14.811Z,84.70
2018-07-09T01:41:44.785Z,84.50
2018-07-09T01:44:14.765Z,84.40
2018-07-09T01:46:44.728Z,84.50
2018-07-09T01:49:14.699Z,85.00
2018-07-09T01:51:44.660Z,84.70
2018-07-09T01:54:14.632Z,85.20
2018-07-09T01:56:44.583Z,85.40
2018-07-09T01:59:14.955Z,85.30
2018-07-09T02:01:45.043Z,84.70
2018-07-09T02:04:14.992Z,85.20
2018-07-09T02:06:44.962Z,85.40
2018-07-09T02:09:14.915Z,85.80
2018-07-09T02:11:44.888Z,85.90
2018-07-09T02:14:14.854Z,85.90
2018-07-09T02:16:44.883Z,85.80
2018-07-09T02:19:14.864Z,86.70
2018-07-09T02:21:44.832Z,85.70
2018-07-09T02:24:15.025Z,85.50
2018-07-09T02:29:14.705Z,86.90
2018-07-09T02:31:44.689Z,87.10
2018-07-09T02:34:14.661Z,87.50
2018-07-09T02:36:44.629Z,88.20
2018-07-09T02:39:14.590Z,88.30
2018-07-09T02:41:44.595Z,88.50
2018-07-09T02:44:14.567Z,88.30
2018-07-09T02:46:44.517Z,88.30
2018-07-09T02:49:14.570Z,88.70
2018-07-09T02:51:44.462Z,88.60
2018-07-09T02:54:14.445Z,88.50
2018-07-09T02:56:44.405Z,88.60
2018-07-09T02:59:14.400Z,88.30
2018-07-09T03:01:44.404Z,88.30
2018-07-09T03:04:14.373Z,88.90
2018-07-09T03:06:44.337Z,88.20
2018-07-09T03:09:14.325Z,88.40
2018-07-09T03:11:44.276Z,88.60
2018-07-09T03:14:14.253Z,88.50
2018-07-09T03:16:44.236Z,89.10
2018-07-09T03:19:14.305Z,89.20
2018-07-09T03:21:44.196Z,90.00
2018-07-09T03:24:14.509Z,89.40
2018-07-09T03:26:44.464Z,90.00
2018-07-09T03:29:14.428Z,89.90
2018-07-09T03:31:44.389Z,90.10
2018-07-09T03:34:14.363Z,90.10
2018-07-09T03:36:44.428Z,89.80
2018-07-09T03:39:14.785Z,89.90
2018-07-09T03:41:44.764Z,89.70
2018-07-09T03:44:14.738Z,90.00
2018-07-09T03:46:44.717Z,89.70
2018-07-09T03:49:14.695Z,90.10
2018-07-09T03:51:44.656Z,89.50
2018-07-09T03:54:14.812Z,88.90
2018-07-09T03:56:44.772Z,89.20
2018-07-09T03:59:14.753Z,89.40
2018-07-09T04:01:44.728Z,89.60
2018-07-09T04:04:14.719Z,90.00
2018-07-09T04:06:44.656Z,90.30
2018-07-09T04:09:14.612Z,90.40
2018-07-09T04:11:44.588Z,90.30
2018-07-09T04:14:14.552Z,90.40
2018-07-09T04:16:44.520Z,90.40
2018-07-09T04:19:14.487Z,90.40
2018-07-09T04:21:44.475Z,90.50
2018-07-09T04:24:14.653Z,90.60
2018-07-09T04:26:44.639Z,90.80
2018-07-09T04:29:14.624Z,90.80
2018-07-09T04:31:44.626Z,90.90
2018-07-09T04:34:14.564Z,90.90
2018-07-09T04:36:44.564Z,91.10
2018-07-09T04:39:14.645Z,91.30
2018-07-09T04:41:44.620Z,91.20
2018-07-09T04:44:14.580Z,90.90
2018-07-09T04:46:44.547Z,90.90
2018-07-09T04:49:14.516Z,90.60
2018-07-09T04:51:44.524Z,90.40
2018-07-09T04:54:14.493Z,90.20
2018-07-09T04:56:44.481Z,90.10
2018-07-09T04:59:14.523Z,89.10
2018-07-09T05:01:44.496Z,88.50
2018-07-09T05:04:14.464Z,88.80
2018-07-09T05:06:44.476Z,89.60
2018-07-09T05:09:14.439Z,90.00
2018-07-09T05:11:44.425Z,89.60
2018-07-09T05:14:14.396Z,89.10
2018-07-09T05:16:44.572Z,89.10
2018-07-09T05:19:14.528Z,90.00
2018-07-09T05:21:44.508Z,89.00
2018-07-09T05:24:14.472Z,89.90
2018-07-09T05:26:44.448Z,90.30
2018-07-09T05:29:14.420Z,90.40
2018-07-09T05:31:44.400Z,90.10
2018-07-09T05:34:14.377Z,90.00
2018-07-09T05:36:44.387Z,89.70
2018-07-09T05:39:14.351Z,89.30
2018-07-09T05:41:44.337Z,89.00
2018-07-09T05:44:14.300Z,89.40
2018-07-09T05:46:44.278Z,88.80
2018-07-09T05:49:14.320Z,87.90
2018-07-09T05:51:44.878Z,88.90
2018-07-09T05:54:14.823Z,86.60
2018-07-09T05:56:44.807Z,84.60
2018-07-09T05:59:14.778Z,83.60
2018-07-09T06:01:44.788Z,82.90
2018-07-09T06:04:14.784Z,83.30
2018-07-09T06:06:44.751Z,82.00
2018-07-09T06:09:14.881Z,82.30
2018-07-09T06:11:44.861Z,83.90
2018-07-09T06:14:14.830Z,81.90
2018-07-09T06:16:44.800Z,79.60
2018-07-09T06:19:14.826Z,77.80
2018-07-09T06:21:44.756Z,77.00
2018-07-09T06:24:14.803Z,78.30
2018-07-09T06:26:44.760Z,79.00
2018-07-09T06:29:14.937Z,78.90
2018-07-09T06:31:44.928Z,77.10
2018-07-09T06:34:14.980Z,78.70
2018-07-09T06:36:44.949Z,77.30
2018-07-09T06:39:15.261Z,75.30
2018-07-09T06:41:45.253Z,74.80
2018-07-09T06:44:15.276Z,75.10
2018-07-09T06:46:45.254Z,75.90
2018-07-09T06:49:15.216Z,73.20
2018-07-09T06:51:45.198Z,72.10
2018-07-09T06:54:15.563Z,71.80
2018-07-09T06:56:45.552Z,72.50
2018-07-09T06:59:15.544Z,72.10
2018-07-09T07:01:45.568Z,71.20
2018-07-09T07:04:15.495Z,68.10
2018-07-09T07:06:45.469Z,68.00
2018-07-09T07:09:15.567Z,66.20
2018-07-09T07:11:45.423Z,64.00
2018-07-09T07:14:15.437Z,62.90
2018-07-09T07:16:45.372Z,62.10
2018-07-09T07:19:15.370Z,61.50
2018-07-09T07:21:45.455Z,59.70
2018-07-09T07:24:15.927Z,58.80
2018-07-09T07:26:45.915Z,57.30
2018-07-09T07:29:15.892Z,55.10
2018-07-09T07:31:45.861Z,56.90
2018-07-09T07:34:15.928Z,56.60
2018-07-09T07:36:45.904Z,56.20
2018-07-09T07:39:15.976Z,55.60
2018-07-09T07:41:45.924Z,55.30
2018-07-09T07:44:15.997Z,54.00
2018-07-09T07:46:46.204Z,53.10
2018-07-09T07:49:16.177Z,54.30
2018-07-09T07:51:46.148Z,53.90
2018-07-09T07:54:16.128Z,51.70
2018-07-09T07:56:46.216Z,53.30
2018-07-09T07:59:16.268Z,51.70
2018-07-09T08:01:46.232Z,52.30
2018-07-09T08:04:16.240Z,52.50
2018-07-09T08:06:46.220Z,52.40
2018-07-09T08:09:16.362Z,52.60
2018-07-09T08:11:49.192Z,51.70
2018-07-09T08:14:16.582Z,50.50
2018-07-09T08:16:46.626Z,50.90
2018-07-09T08:19:16.622Z,51.20
2018-07-09T08:21:46.617Z,48.90
2018-07-09T08:24:16.933Z,49.60
2018-07-09T08:26:46.908Z,47.40
2018-07-09T08:29:16.888Z,47.80
2018-07-09T08:31:46.928Z,49.70
2018-07-09T08:34:17.017Z,50.20
2018-07-09T08:36:47.026Z,50.70
2018-07-09T08:39:17.048Z,51.50
2018-07-09T08:41:47.038Z,52.40
2018-07-09T08:44:17.019Z,52.10
2018-07-09T08:46:47.000Z,52.70
2018-07-09T08:51:46.677Z,52.90
2018-07-09T08:54:16.776Z,52.00
2018-07-09T08:56:46.844Z,51.80
2018-07-09T08:59:16.832Z,52.30
2018-07-09T09:01:46.791Z,53.00
2018-07-09T09:04:16.782Z,51.90
2018-07-09T09:06:46.854Z,53.30
2018-07-09T09:09:16.920Z,52.80
2018-07-09T09:11:46.879Z,52.70
2018-07-09T09:14:16.879Z,52.50
2018-07-09T09:16:46.909Z,52.80
2018-07-09T09:19:16.906Z,52.50
2018-07-09T09:21:46.896Z,53.00
2018-07-09T09:24:17.040Z,51.40
2018-07-09T09:26:47.067Z,51.60
2018-07-09T09:29:17.050Z,51.80
2018-07-09T09:31:47.096Z,51.30
2018-07-09T09:34:17.086Z,52.40
2018-07-09T09:36:47.035Z,51.80
2018-07-09T09:39:17.017Z,50.60
2018-07-09T09:41:46.986Z,50.30
2018-07-09T09:44:16.956Z,50.70
2018-07-09T09:46:47.301Z,50.70
2018-07-09T09:49:17.386Z,50.10
2018-07-09T09:51:47.320Z,50.00
2018-07-09T09:54:17.313Z,50.00
2018-07-09T09:56:47.412Z,50.60
2018-07-09T09:59:17.377Z,50.00
2018-07-09T10:01:47.344Z,49.60
2018-07-09T10:04:17.420Z,49.30
2018-07-09T10:06:47.404Z,49.10
2018-07-09T10:09:17.378Z,48.50
2018-07-09T10:11:47.440Z,48.60
2018-07-09T10:14:17.407Z,47.70
2018-07-09T10:16:47.393Z,47.70
2018-07-09T10:19:17.391Z,46.30
2018-07-09T10:21:47.359Z,46.20
2018-07-09T10:24:17.324Z,46.90
2018-07-09T10:26:47.384Z,47.00
2018-07-09T10:29:17.457Z,49.50
2018-07-09T10:31:47.412Z,47.50
2018-07-09T10:34:17.380Z,47.00
2018-07-09T10:36:47.336Z,47.50
2018-07-09T10:39:17.477Z,46.10
2018-07-09T10:41:47.472Z,46.40
2018-07-09T10:44:17.432Z,45.90
2018-07-09T10:46:47.448Z,45.60
2018-07-09T10:49:17.412Z,45.10
2018-07-09T10:51:47.414Z,44.10
2018-07-09T10:54:17.395Z,45.00
2018-07-09T10:56:47.396Z,43.20
2018-07-09T10:59:17.378Z,44.40
2018-07-09T11:01:47.408Z,44.20
2018-07-09T11:04:17.469Z,44.10
2018-07-09T11:06:47.444Z,42.40
2018-07-09T11:09:17.556Z,44.00
2018-07-09T11:11:47.601Z,44.00
2018-07-09T11:14:17.557Z,43.90
2018-07-09T11:16:47.515Z,43.00
2018-07-09T11:19:17.616Z,42.60
2018-07-09T11:21:47.668Z,43.10
2018-07-09T11:24:17.655Z,41.90
2018-07-09T11:26:47.640Z,40.40
2018-07-09T11:29:17.633Z,42.40
2018-07-09T11:31:47.637Z,41.30
2018-07-09T11:34:17.612Z,41.40
2018-07-09T11:36:47.628Z,39.90
2018-07-09T11:39:17.600Z,41.90
2018-07-09T11:41:47.607Z,40.50
2018-07-09T11:44:17.573Z,39.90
2018-07-09T11:46:47.552Z,40.60
2018-07-09T11:49:17.516Z,39.50
2018-07-09T11:51:47.611Z,39.50
2018-07-09T11:54:17.576Z,39.90
2018-07-09T11:56:47.532Z,40.80
2018-07-09T11:59:17.501Z,39.30
2018-07-09T12:01:48.289Z,41.30
2018-07-09T12:04:19.374Z,42.20
2018-07-09T12:06:49.376Z,43.00
2018-07-09T12:09:19.338Z,41.70
2018-07-09T12:11:49.352Z,38.90
2018-07-09T12:14:19.332Z,39.20
2018-07-09T12:16:49.299Z,39.80
2018-07-09T12:19:19.308Z,39.90
2018-07-09T12:21:49.339Z,40.00
2018-07-09T12:26:48.927Z,39.90
2018-07-09T12:29:18.888Z,41.30
2018-07-09T12:31:48.879Z,40.20
2018-07-09T12:34:18.833Z,40.30
2018-07-09T12:36:48.868Z,40.20
2018-07-09T12:39:18.839Z,40.20
2018-07-09T12:41:48.857Z,39.30
2018-07-09T12:44:18.892Z,39.20
2018-07-09T12:46:48.875Z,38.90
2018-07-09T12:49:18.844Z,40.10
2018-07-09T12:51:48.841Z,37.70
2018-07-09T12:54:19.813Z,37.30
2018-07-09T12:56:49.797Z,38.50
2018-07-09T12:59:19.771Z,38.00
2018-07-09T13:01:50.076Z,37.50
2018-07-09T13:04:20.117Z,38.30
2018-07-09T13:06:50.079Z,37.80
2018-07-09T13:09:20.033Z,37.40
2018-07-09T13:11:50.000Z,38.60
2018-07-09T13:14:19.976Z,39.00
2018-07-09T13:16:49.970Z,41.50
2018-07-09T13:19:19.971Z,39.50
2018-07-09T13:21:50.012Z,40.40
2018-07-09T13:24:20.068Z,40.40
2018-07-09T13:26:50.056Z,39.80
2018-07-09T13:31:49.773Z,38.10
2018-07-09T13:34:19.795Z,38.10
2018-07-09T13:36:50.208Z,38.00
2018-07-09T13:39:20.166Z,36.20
2018-07-09T13:41:50.215Z,37.50
2018-07-09T13:46:49.967Z,37.60
2018-07-09T13:49:20.170Z,37.00
2018-07-09T13:51:50.207Z,37.40
2018-07-09T13:54:20.894Z,36.50
2018-07-09T13:56:50.892Z,35.90
2018-07-09T13:59:20.924Z,36.00
2018-07-09T14:01:50.897Z,35.30
2018-07-09T14:04:20.885Z,35.70
2018-07-09T14:06:50.844Z,36.70
2018-07-09T14:09:21.012Z,35.00
2018-07-09T14:11:50.975Z,35.30
2018-07-09T14:14:20.960Z,34.80
2018-07-09T14:16:51.013Z,34.60
2018-07-09T14:20:51.153Z,34.10
2018-07-09T14:23:21.171Z,34.50
2018-07-09T14:25:51.139Z,34.70
2018-07-09T14:28:21.148Z,36.20
2018-07-09T14:33:20.810Z,36.40
2018-07-09T14:35:50.812Z,37.70
2018-07-09T14:38:20.899Z,36.40
2018-07-09T14:40:50.857Z,36.20
2018-07-09T14:43:20.903Z,36.90
2018-07-09T14:45:50.863Z,36.90
2018-07-09T14:48:20.843Z,36.70
2018-07-09T14:50:50.855Z,36.40
2018-07-09T14:53:20.817Z,35.90
2018-07-09T14:55:50.847Z,35.80
2018-07-09T14:58:20.904Z,35.50
2018-07-09T15:00:50.919Z,36.10
2018-07-09T15:03:20.905Z,36.00
2018-07-09T15:05:50.869Z,35.50
2018-07-09T15:08:20.845Z,35.00
2018-07-09T15:10:50.841Z,34.90
2018-07-09T15:13:20.812Z,35.10
2018-07-09T15:15:50.952Z,36.20
2018-07-09T15:18:21.044Z,35.80
2018-07-09T15:20:51.013Z,34.10
2018-07-09T15:23:20.993Z,35.10
2018-07-09T15:25:50.952Z,34.70
2018-07-09T15:28:20.924Z,34.90
2018-07-09T15:30:50.880Z,34.70
2018-07-09T15:33:20.904Z,34.40
2018-07-09T15:35:50.875Z,34.50
2018-07-09T15:38:20.846Z,35.50
2018-07-09T15:40:50.859Z,35.30
2018-07-09T15:44:03.364Z,36.20
2018-07-09T15:46:33.311Z,35.60
2018-07-09T15:49:03.298Z,36.10
2018-07-09T15:51:33.415Z,34.90
2018-07-09T15:54:03.400Z,34.50
2018-07-09T15:56:33.353Z,35.80
2018-07-09T15:59:03.368Z,34.10
2018-07-09T16:01:33.352Z,34.50
2018-07-09T16:04:03.334Z,34.10
2018-07-09T16:06:33.365Z,34.10
2018-07-09T16:09:04.184Z,34.10
2018-07-09T16:11:34.348Z,33.80
2018-07-09T16:14:04.347Z,34.30
2018-07-09T16:16:34.584Z,34.90
2018-07-09T16:21:34.225Z,34.90
2018-07-09T16:24:04.356Z,33.40
2018-07-09T16:26:34.312Z,33.10
2018-07-09T16:29:04.328Z,33.60
2018-07-09T16:31:34.254Z,33.70
2018-07-09T16:36:33.914Z,35.60
2018-07-09T16:39:05.362Z,35.10
2018-07-09T16:41:35.805Z,36.50
2018-07-09T16:44:06.148Z,34.00
2018-07-09T16:46:36.106Z,36.40
2018-07-09T16:49:06.221Z,35.70
2018-07-09T16:51:36.216Z,35.20
2018-07-09T16:54:06.260Z,33.60
2018-07-09T16:56:36.265Z,33.80
2018-07-09T16:59:06.247Z,33.50
2018-07-09T17:01:36.271Z,35.00
2018-07-09T17:04:06.414Z,35.00
2018-07-09T17:06:36.375Z,33.70
2018-07-09T17:09:06.660Z,32.90
2018-07-09T17:11:36.641Z,33.70
2018-07-09T17:14:07.365Z,36.60
2018-07-09T17:16:37.344Z,35.80
2018-07-09T17:19:07.464Z,34.90
2018-07-09T17:21:37.387Z,35.40
2018-07-09T17:24:07.952Z,37.30
2018-07-09T17:26:38.107Z,40.10
2018-07-09T17:29:08.095Z,38.60
2018-07-09T17:31:38.057Z,40.30
2018-07-09T17:34:08.364Z,40.90
2018-07-09T17:36:38.368Z,41.50
2018-07-09T17:39:08.332Z,40.80
2018-07-09T17:41:38.308Z,44.00
2018-07-09T17:44:08.730Z,45.60
2018-07-09T17:46:38.602Z,44.30
2018-07-09T17:49:08.567Z,46.50
2018-07-09T17:51:38.599Z,47.10
2018-07-09T17:54:08.712Z,45.50
2018-07-09T17:56:38.733Z,49.40
2018-07-09T17:59:08.749Z,48.50
2018-07-09T18:01:38.852Z,48.10
2018-07-09T18:04:09.176Z,51.10
2018-07-09T18:06:39.168Z,51.10
2018-07-09T18:09:09.220Z,48.00
2018-07-09T18:11:39.200Z,51.40
2018-07-09T18:14:09.369Z,49.70
2018-07-09T18:16:39.359Z,51.60
2018-07-09T18:19:09.539Z,50.60
2018-07-09T18:21:39.458Z,52.50
2018-07-09T18:24:09.772Z,52.10
2018-07-09T18:26:39.826Z,51.50
2018-07-09T18:29:09.781Z,51.90
2018-07-09T18:31:39.822Z,50.80
2018-07-09T18:34:10.012Z,51.70
2018-07-09T18:36:41.212Z,52.20
2018-07-09T18:39:11.651Z,52.90
2018-07-09T18:41:42.008Z,52.50
2018-07-09T18:44:12.076Z,54.60
2018-07-09T18:46:42.056Z,55.30
2018-07-09T18:49:12.028Z,56.80
2018-07-09T18:51:42.252Z,56.90
2018-07-09T18:54:13.008Z,58.20
2018-07-09T18:56:43.628Z,58.80
2018-07-09T18:59:13.956Z,58.00
2018-07-09T19:01:44.184Z,59.00
2018-07-09T19:04:15.204Z,59.20
2018-07-09T19:06:55.470Z,59.10
2018-07-09T19:09:26.422Z,60.00
2018-07-09T19:11:57.200Z,59.80
2018-07-09T19:14:38.477Z,58.40
2018-07-09T19:18:25.569Z,58.80
2018-07-09T19:21:42.245Z,60.00
2018-07-09T19:24:12.428Z,61.60
2018-07-09T19:26:42.041Z,61.10
2018-07-09T19:29:10.572Z,61.80
2018-07-09T19:31:39.106Z,63.20
2018-07-09T19:34:07.614Z,62.70
2018-07-09T19:36:36.311Z,62.70
2018-07-09T19:39:05.188Z,62.50
2018-07-09T19:44:02.300Z,63.30
2018-07-09T19:46:30.756Z,63.70
2018-07-09T19:48:59.278Z,65.10
2018-07-09T19:51:27.724Z,65.30
2018-07-09T19:53:56.184Z,66.00
2018-07-09T19:56:24.645Z,66.00
2018-07-09T19:58:53.099Z,66.50
2018-07-09T20:01:21.540Z,66.30
2018-07-09T20:03:49.999Z,67.00
2018-07-09T20:06:18.465Z,67.40
2018-07-09T20:08:52.111Z,67.10
2018-07-09T20:11:25.964Z,67.90
2018-07-09T20:14:08.756Z,67.70
2018-07-09T20:16:42.341Z,67.90
2018-07-09T20:19:11.259Z,68.30
2018-07-09T20:24:08.256Z,69.50
2018-07-09T20:26:36.701Z,70.30
2018-07-09T20:29:05.152Z,70.40
2018-07-09T20:34:02.196Z,68.90
2018-07-09T20:36:30.648Z,69.90
2018-07-09T20:38:59.096Z,69.30
2018-07-09T20:41:27.536Z,70.10
2018-07-09T20:43:55.992Z,71.10
2018-07-09T20:46:24.440Z,72.30
2018-07-09T20:48:52.901Z,72.80
2018-07-09T20:51:21.348Z,73.40
2018-07-09T20:53:49.832Z,73.80
2018-07-09T20:56:18.455Z,73.70
2018-07-09T20:58:46.916Z,74.30
2018-07-09T21:01:15.374Z,75.00
2018-07-09T21:03:43.843Z,75.00
2018-07-09T21:06:12.284Z,75.50
2018-07-09T21:08:40.737Z,75.90
2018-07-09T21:11:09.240Z,76.50
2018-07-09T21:16:06.436Z,77.20
2018-07-09T21:18:34.728Z,77.70
2018-07-09T21:21:03.177Z,77.70
2018-07-09T21:23:31.644Z,78.20
2018-07-09T21:26:00.088Z,78.30
2018-07-09T21:28:28.543Z,78.30
2018-07-09T21:30:56.992Z,78.90
2018-07-09T21:33:25.454Z,78.60
2018-07-09T21:35:53.900Z,78.70
2018-07-09T21:38:22.363Z,79.30
2018-07-09T21:40:50.812Z,79.60
2018-07-09T21:43:19.283Z,80.20
2018-07-09T21:45:47.737Z,79.50
2018-07-09T21:48:16.220Z,80.20
2018-07-09T21:50:44.676Z,80.50
2018-07-09T21:53:14.235Z,80.70
2018-07-09T21:55:43.248Z,80.90
2018-07-09T21:58:13.617Z,81.40
2018-07-09T22:00:42.348Z,81.40
2018-07-09T22:03:10.788Z,81.70
2018-07-09T22:05:39.249Z,81.90
2018-07-09T22:08:07.699Z,81.80
2018-07-09T22:10:36.152Z,82.00
2018-07-09T22:13:04.744Z,82.50
2018-07-09T22:15:33.208Z,82.50
2018-07-09T22:18:01.653Z,82.60
2018-07-09T22:20:30.107Z,82.10
2018-07-09T22:22:58.560Z,82.30
2018-07-09T22:25:27.020Z,82.10
2018-07-09T22:27:55.455Z,82.20
2018-07-09T22:30:29.496Z,82.40
2018-07-09T22:32:59.680Z,82.60
2018-07-09T22:35:29.648Z,82.90
2018-07-09T22:37:59.605Z,82.70
2018-07-09T22:40:29.572Z,82.80
2018-07-09T22:43:05.321Z,82.90
2018-07-09T22:45:35.286Z,83.00
2018-07-09T22:48:05.516Z,82.80
2018-07-09T22:50:35.560Z,82.70
2018-07-09T22:53:05.515Z,82.80
2018-07-09T22:55:52.316Z,82.30
2018-07-09T22:58:22.296Z,83.00
2018-07-09T23:00:52.292Z,82.50
2018-07-09T23:03:22.275Z,82.60
2018-07-09T23:05:52.249Z,82.70
2018-07-09T23:08:23.028Z,82.90
2018-07-09T23:12:19.435Z,83.10
2018-07-09T23:16:37.508Z,83.20
2018-07-09T23:19:31.588Z,83.00
2018-07-09T23:22:21.734Z,83.30
2018-07-09T23:24:50.196Z,83.30
2018-07-09T23:29:47.232Z,83.20
2018-07-09T23:32:15.679Z,83.40
2018-07-09T23:34:44.125Z,83.60
2018-07-09T23:37:13.720Z,83.90
2018-07-09T23:39:42.683Z,84.10
2018-07-09T23:42:11.416Z,84.10
2018-07-09T23:44:39.856Z,84.10
2018-07-09T23:47:08.308Z,84.10
2018-07-09T23:49:36.756Z,84.40
2018-07-09T23:52:05.216Z,84.40
2018-07-09T23:58:18.568Z,84.30
